sensor_id;sensor_type;location;lat;lon;timestamp;pressure;altitude;pressure_sealevel;temperature;humidity
57000;BME280;42891;50.006;21.964;2023-04-21T00:01:25;50902.50;;;-146.02;50.44
57000;BME280;42891;50.006;21.964;2023-04-21T00:05:28;50890.47;;;-146.02;51.87
57000;BME280;42891;50.006;21.964;2023-04-21T00:09:29;50890.47;;;-146.02;51.98
57000;BME280;42891;50.006;21.964;2023-04-21T00:13:29;50888.47;;;-146.02;51.47
57000;BME280;42891;50.006;21.964;2023-04-21T00:17:30;50918.53;;;-146.02;50.39
57000;BME280;42891;50.006;21.964;2023-04-21T00:21:30;50884.47;;;-146.02;51.27
57000;BME280;42891;50.006;21.964;2023-04-21T00:25:30;50896.50;;;-146.02;53.15
57000;BME280;42891;50.006;21.964;2023-04-21T00:29:31;50912.53;;;-146.02;53.59
57000;BME280;42891;50.006;21.964;2023-04-21T00:33:31;50942.56;;;-146.02;53.65
57000;BME280;42891;50.006;21.964;2023-04-21T00:37:31;50906.50;;;-146.02;53.40
57000;BME280;42891;50.006;21.964;2023-04-21T00:41:32;50864.44;;;-146.02;53.01
57000;BME280;42891;50.006;21.964;2023-04-21T00:45:34;50872.44;;;-146.02;53.17
57000;BME280;42891;50.006;21.964;2023-04-21T00:49:35;50908.50;;;-146.02;54.46
57000;BME280;42891;50.006;21.964;2023-04-21T00:53:35;50896.50;;;-146.02;54.68
57000;BME280;42891;50.006;21.964;2023-04-21T00:57:36;50900.50;;;-146.02;54.32
57000;BME280;42891;50.006;21.964;2023-04-21T01:01:39;50880.47;;;-146.02;55.23
57000;BME280;42891;50.006;21.964;2023-04-21T01:05:40;50888.47;;;-146.02;54.87
57000;BME280;42891;50.006;21.964;2023-04-21T01:09:41;50924.53;;;-146.02;54.79
57000;BME280;42891;50.006;21.964;2023-04-21T01:13:42;50898.50;;;-146.02;54.67
57000;BME280;42891;50.006;21.964;2023-04-21T01:17:42;50904.50;;;-146.02;55.01
57000;BME280;42891;50.006;21.964;2023-04-21T01:21:42;50896.50;;;-146.02;54.94
57000;BME280;42891;50.006;21.964;2023-04-21T01:25:43;50910.53;;;-146.02;54.88
57000;BME280;42891;50.006;21.964;2023-04-21T01:29:45;50850.41;;;-146.02;54.37
57000;BME280;42891;50.006;21.964;2023-04-21T01:33:46;50914.53;;;-146.02;54.74
57000;BME280;42891;50.006;21.964;2023-04-21T01:37:46;50930.56;;;-146.02;54.85
57000;BME280;42891;50.006;21.964;2023-04-21T01:41:46;50912.53;;;-146.02;54.85
57000;BME280;42891;50.006;21.964;2023-04-21T01:45:47;50910.53;;;-146.02;55.01
57000;BME280;42891;50.006;21.964;2023-04-21T01:49:48;50896.50;;;-146.02;55.43
57000;BME280;42891;50.006;21.964;2023-04-21T01:53:48;50924.53;;;-146.02;55.47
57000;BME280;42891;50.006;21.964;2023-04-21T01:57:48;50888.47;;;-146.02;55.16
57000;BME280;42891;50.006;21.964;2023-04-21T02:01:49;50908.50;;;-146.02;55.17
57000;BME280;42891;50.006;21.964;2023-04-21T02:05:49;50930.56;;;-146.02;55.54
57000;BME280;42891;50.006;21.964;2023-04-21T02:09:50;50928.56;;;-146.02;55.34
57000;BME280;42891;50.006;21.964;2023-04-21T02:13:52;50938.56;;;-146.02;55.55
57000;BME280;42891;50.006;21.964;2023-04-21T02:17:52;50886.47;;;-146.02;55.85
57000;BME280;42891;50.006;21.964;2023-04-21T02:21:53;50946.59;;;-146.02;55.83
57000;BME280;42891;50.006;21.964;2023-04-21T02:25:53;50896.50;;;-146.02;56.21
57000;BME280;42891;50.006;21.964;2023-04-21T02:29:53;50930.56;;;-146.02;56.37
57000;BME280;42891;50.006;21.964;2023-04-21T02:33:53;50902.50;;;-146.02;56.67
57000;BME280;42891;50.006;21.964;2023-04-21T02:37:54;50914.53;;;-146.02;56.45
57000;BME280;42891;50.006;21.964;2023-04-21T02:41:55;50902.50;;;-146.02;56.27
57000;BME280;42891;50.006;21.964;2023-04-21T02:45:55;50908.50;;;-146.02;55.96
57000;BME280;42891;50.006;21.964;2023-04-21T02:49:56;50918.53;;;-146.02;55.68
57000;BME280;42891;50.006;21.964;2023-04-21T02:53:56;50880.47;;;-146.02;55.58
57000;BME280;42891;50.006;21.964;2023-04-21T02:57:57;50888.47;;;-146.02;55.69
57000;BME280;42891;50.006;21.964;2023-04-21T03:01:57;50932.56;;;-146.02;56.40
57000;BME280;42891;50.006;21.964;2023-04-21T03:06:02;50984.66;;;-146.02;56.77
57000;BME280;42891;50.006;21.964;2023-04-21T03:10:04;50904.50;;;-146.02;56.77
57000;BME280;42891;50.006;21.964;2023-04-21T03:14:05;50916.53;;;-146.02;56.40
57000;BME280;42891;50.006;21.964;2023-04-21T03:18:05;50898.50;;;-146.02;55.93
57000;BME280;42891;50.006;21.964;2023-04-21T03:22:06;50946.59;;;-146.02;56.28
57000;BME280;42891;50.006;21.964;2023-04-21T03:26:07;50864.44;;;-146.02;56.02
57000;BME280;42891;50.006;21.964;2023-04-21T03:30:07;50928.56;;;-146.02;56.57
57000;BME280;42891;50.006;21.964;2023-04-21T03:34:08;50930.56;;;-146.02;57.38
57000;BME280;42891;50.006;21.964;2023-04-21T03:38:08;50932.56;;;-146.02;56.43
57000;BME280;42891;50.006;21.964;2023-04-21T03:42:08;50936.56;;;-146.02;56.78
57000;BME280;42891;50.006;21.964;2023-04-21T03:46:19;50942.56;;;-146.02;58.17
57000;BME280;42891;50.006;21.964;2023-04-21T03:50:20;50904.50;;;-146.02;57.96
57000;BME280;42891;50.006;21.964;2023-04-21T03:54:20;50910.53;;;-146.02;59.09
57000;BME280;42891;50.006;21.964;2023-04-21T03:58:21;50910.53;;;-146.02;59.57
57000;BME280;42891;50.006;21.964;2023-04-21T04:02:21;50912.53;;;-146.02;59.43
57000;BME280;42891;50.006;21.964;2023-04-21T04:06:22;50944.59;;;-146.02;58.58
57000;BME280;42891;50.006;21.964;2023-04-21T04:10:22;50926.53;;;-146.02;59.03
57000;BME280;42891;50.006;21.964;2023-04-21T04:14:22;50936.56;;;-146.02;58.96
57000;BME280;42891;50.006;21.964;2023-04-21T04:18:22;50936.56;;;-146.02;59.45
57000;BME280;42891;50.006;21.964;2023-04-21T04:22:23;50944.59;;;-146.02;59.14
57000;BME280;42891;50.006;21.964;2023-04-21T04:26:24;50924.53;;;-146.02;59.27
57000;BME280;42891;50.006;21.964;2023-04-21T04:30:24;50918.53;;;-146.02;59.25
57000;BME280;42891;50.006;21.964;2023-04-21T04:34:27;50906.50;;;-146.02;59.32
57000;BME280;42891;50.006;21.964;2023-04-21T04:38:27;50924.53;;;-146.02;59.20
57000;BME280;42891;50.006;21.964;2023-04-21T04:42:29;50916.53;;;-146.02;59.02
57000;BME280;42891;50.006;21.964;2023-04-21T04:46:32;50912.53;;;-146.02;58.51
57000;BME280;42891;50.006;21.964;2023-04-21T04:50:33;50964.63;;;-146.02;58.86
57000;BME280;42891;50.006;21.964;2023-04-21T04:54:33;50892.47;;;-146.02;58.70
57000;BME280;42891;50.006;21.964;2023-04-21T04:58:33;50906.50;;;-146.02;58.77
57000;BME280;42891;50.006;21.964;2023-04-21T05:02:34;50918.53;;;-146.02;58.79
57000;BME280;42891;50.006;21.964;2023-04-21T05:06:34;50914.53;;;-146.02;58.85
57000;BME280;42891;50.006;21.964;2023-04-21T05:10:34;50932.56;;;-146.02;58.44
57000;BME280;42891;50.006;21.964;2023-04-21T05:14:35;50908.50;;;-146.02;58.46
57000;BME280;42891;50.006;21.964;2023-04-21T05:18:36;50910.53;;;-146.02;58.27
57000;BME280;42891;50.006;21.964;2023-04-21T05:22:37;50924.53;;;-146.02;58.58
57000;BME280;42891;50.006;21.964;2023-04-21T05:26:38;50918.53;;;-146.02;56.29
57000;BME280;42891;50.006;21.964;2023-04-21T05:30:38;50946.59;;;-146.02;54.89
57000;BME280;42891;50.006;21.964;2023-04-21T05:34:38;50926.53;;;-146.02;53.97
57000;BME280;42891;50.006;21.964;2023-04-21T05:38:39;50936.56;;;-146.02;53.71
57000;BME280;42891;50.006;21.964;2023-04-21T05:42:39;50926.53;;;-146.02;54.50
57000;BME280;42891;50.006;21.964;2023-04-21T05:46:39;50924.53;;;-146.02;53.87
57000;BME280;42891;50.006;21.964;2023-04-21T05:50:40;50912.53;;;-146.02;53.47
57000;BME280;42891;50.006;21.964;2023-04-21T05:54:40;50924.53;;;-146.02;51.76
57000;BME280;42891;50.006;21.964;2023-04-21T05:58:41;50908.50;;;-146.02;51.77
57000;BME280;42891;50.006;21.964;2023-04-21T06:02:42;50932.56;;;-146.02;51.81
57000;BME280;42891;50.006;21.964;2023-04-21T06:06:42;50894.50;;;-146.02;50.73
57000;BME280;42891;50.006;21.964;2023-04-21T06:10:43;50908.50;;;-146.02;50.01
57000;BME280;42891;50.006;21.964;2023-04-21T06:14:43;50908.50;;;-146.02;50.66
57000;BME280;42891;50.006;21.964;2023-04-21T06:18:44;50874.44;;;-146.02;50.50
57000;BME280;42891;50.006;21.964;2023-04-21T06:22:44;50900.50;;;-146.02;50.29
57000;BME280;42891;50.006;21.964;2023-04-21T06:26:44;50900.50;;;-146.02;48.78
57000;BME280;42891;50.006;21.964;2023-04-21T06:30:45;50910.53;;;-146.02;49.28
57000;BME280;42891;50.006;21.964;2023-04-21T06:34:45;50882.47;;;-146.02;49.79
57000;BME280;42891;50.006;21.964;2023-04-21T06:38:45;50902.50;;;-146.02;47.41
57000;BME280;42891;50.006;21.964;2023-04-21T06:42:46;50894.50;;;-146.02;46.99
57000;BME280;42891;50.006;21.964;2023-04-21T06:46:46;50892.47;;;-146.02;47.06
57000;BME280;42891;50.006;21.964;2023-04-21T06:50:47;50894.50;;;-146.02;48.37
57000;BME280;42891;50.006;21.964;2023-04-21T06:54:47;50926.53;;;-146.02;48.35
57000;BME280;42891;50.006;21.964;2023-04-21T06:58:47;50930.56;;;-146.02;47.21
57000;BME280;42891;50.006;21.964;2023-04-21T07:02:48;50884.47;;;-146.02;47.86
57000;BME280;42891;50.006;21.964;2023-04-21T07:06:48;50898.50;;;-146.02;46.49
57000;BME280;42891;50.006;21.964;2023-04-21T07:10:49;50880.47;;;-146.02;46.68
57000;BME280;42891;50.006;21.964;2023-04-21T07:14:49;50896.50;;;-146.02;46.88
57000;BME280;42891;50.006;21.964;2023-04-21T07:18:49;50876.44;;;-146.02;46.30
57000;BME280;42891;50.006;21.964;2023-04-21T07:22:50;50896.50;;;-146.02;45.92
57000;BME280;42891;50.006;21.964;2023-04-21T07:26:50;50908.50;;;-146.02;45.61
57000;BME280;42891;50.006;21.964;2023-04-21T07:30:50;50902.50;;;-146.02;45.44
57000;BME280;42891;50.006;21.964;2023-04-21T07:34:51;50878.47;;;-146.02;45.74
57000;BME280;42891;50.006;21.964;2023-04-21T07:38:51;50892.47;;;-146.02;44.10
57000;BME280;42891;50.006;21.964;2023-04-21T07:42:51;50900.50;;;-146.02;43.27
57000;BME280;42891;50.006;21.964;2023-04-21T07:46:52;50876.44;;;-146.02;43.17
57000;BME280;42891;50.006;21.964;2023-04-21T07:50:52;50896.50;;;-146.02;43.75
57000;BME280;42891;50.006;21.964;2023-04-21T07:54:52;50896.50;;;-146.02;41.01
57000;BME280;42891;50.006;21.964;2023-04-21T07:58:53;50834.38;;;-146.02;40.61
57000;BME280;42891;50.006;21.964;2023-04-21T08:02:53;50842.38;;;-146.02;40.40
57000;BME280;42891;50.006;21.964;2023-04-21T08:06:54;50854.41;;;-146.02;39.36
57000;BME280;42891;50.006;21.964;2023-04-21T08:10:54;50858.41;;;-146.02;42.54
57000;BME280;42891;50.006;21.964;2023-04-21T08:14:55;50884.47;;;-146.02;39.82
57000;BME280;42891;50.006;21.964;2023-04-21T08:18:55;50842.38;;;-146.02;37.70
57000;BME280;42891;50.006;21.964;2023-04-21T08:22:56;50850.41;;;-146.02;40.49
57000;BME280;42891;50.006;21.964;2023-04-21T08:26:56;50900.50;;;-146.02;38.74
57000;BME280;42891;50.006;21.964;2023-04-21T08:30:57;50880.47;;;-146.02;39.82
57000;BME280;42891;50.006;21.964;2023-04-21T08:34:59;50868.44;;;-146.02;39.40
57000;BME280;42891;50.006;21.964;2023-04-21T08:39:00;50842.38;;;-146.02;39.41
57000;BME280;42891;50.006;21.964;2023-04-21T08:43:01;50824.34;;;-146.02;39.63
57000;BME280;42891;50.006;21.964;2023-04-21T08:47:02;50862.44;;;-146.02;39.71
57000;BME280;42891;50.006;21.964;2023-04-21T08:51:03;50858.41;;;-146.02;40.61
57000;BME280;42891;50.006;21.964;2023-04-21T08:55:05;50862.44;;;-146.02;39.28
57000;BME280;42891;50.006;21.964;2023-04-21T08:59:06;50840.38;;;-146.02;39.37
57000;BME280;42891;50.006;21.964;2023-04-21T09:03:07;50848.41;;;-146.02;41.07
57000;BME280;42891;50.006;21.964;2023-04-21T09:07:07;50850.41;;;-146.02;36.67
57000;BME280;42891;50.006;21.964;2023-04-21T09:11:12;50828.38;;;-146.02;35.64
57000;BME280;42891;50.006;21.964;2023-04-21T09:15:13;50852.41;;;-146.02;36.18
57000;BME280;42891;50.006;21.964;2023-04-21T09:19:13;50840.38;;;-146.02;33.74
57000;BME280;42891;50.006;21.964;2023-04-21T09:23:15;50840.38;;;-146.02;34.65
57000;BME280;42891;50.006;21.964;2023-04-21T09:27:16;50810.34;;;-146.02;35.68
57000;BME280;42891;50.006;21.964;2023-04-21T09:31:19;50826.38;;;-146.02;33.46
57000;BME280;42891;50.006;21.964;2023-04-21T09:35:20;50806.31;;;-146.02;31.59
57000;BME280;42891;50.006;21.964;2023-04-21T09:39:21;50824.34;;;-146.02;33.05
57000;BME280;42891;50.006;21.964;2023-04-21T09:43:22;50842.38;;;-146.02;31.58
57000;BME280;42891;50.006;21.964;2023-04-21T09:47:22;50778.28;;;-146.02;32.55
57000;BME280;42891;50.006;21.964;2023-04-21T09:51:23;50800.31;;;-146.02;34.16
57000;BME280;42891;50.006;21.964;2023-04-21T09:55:28;50822.34;;;-146.02;33.06
57000;BME280;42891;50.006;21.964;2023-04-21T09:59:37;50814.34;;;-146.02;33.17
57000;BME280;42891;50.006;21.964;2023-04-21T10:03:40;50798.31;;;-146.02;32.71
57000;BME280;42891;50.006;21.964;2023-04-21T10:07:41;50832.38;;;-146.02;33.38
57000;BME280;42891;50.006;21.964;2023-04-21T10:11:43;50804.31;;;-146.02;32.62
57000;BME280;42891;50.006;21.964;2023-04-21T10:15:43;50778.28;;;-146.02;31.82
57000;BME280;42891;50.006;21.964;2023-04-21T10:19:51;50822.34;;;-146.02;33.42
57000;BME280;42891;50.006;21.964;2023-04-21T10:23:52;50784.28;;;-146.02;31.92
57000;BME280;42891;50.006;21.964;2023-04-21T10:27:53;50824.34;;;-146.02;31.45
57000;BME280;42891;50.006;21.964;2023-04-21T10:31:53;50788.28;;;-146.02;31.89
57000;BME280;42891;50.006;21.964;2023-04-21T10:36:01;50830.38;;;-146.02;31.53
57000;BME280;42891;50.006;21.964;2023-04-21T10:40:03;50774.28;;;-146.02;29.95
57000;BME280;42891;50.006;21.964;2023-04-21T10:48:12;50794.31;;;-146.02;30.81
57000;BME280;42891;50.006;21.964;2023-04-21T10:52:12;50800.31;;;-146.02;31.16
57000;BME280;42891;50.006;21.964;2023-04-21T10:56:15;50782.28;;;-146.02;29.62
57000;BME280;42891;50.006;21.964;2023-04-21T11:00:18;50788.28;;;-146.02;29.47
57000;BME280;42891;50.006;21.964;2023-04-21T11:04:20;50764.25;;;-146.02;30.08
57000;BME280;42891;50.006;21.964;2023-04-21T11:08:21;50770.25;;;-146.02;28.41
57000;BME280;42891;50.006;21.964;2023-04-21T11:12:22;50750.22;;;-146.02;29.08
57000;BME280;42891;50.006;21.964;2023-04-21T11:16:25;50790.28;;;-146.02;28.29
57000;BME280;42891;50.006;21.964;2023-04-21T11:20:25;50780.28;;;-146.02;28.57
57000;BME280;42891;50.006;21.964;2023-04-21T11:24:26;50776.28;;;-146.02;27.69
57000;BME280;42891;50.006;21.964;2023-04-21T11:28:26;50792.31;;;-146.02;29.04
57000;BME280;42891;50.006;21.964;2023-04-21T11:32:27;50752.22;;;-146.02;29.44
57000;BME280;42891;50.006;21.964;2023-04-21T11:36:28;50770.25;;;-146.02;28.79
57000;BME280;42891;50.006;21.964;2023-04-21T11:40:28;50778.28;;;-146.02;28.93
57000;BME280;42891;50.006;21.964;2023-04-21T11:44:41;50746.22;;;-146.02;28.96
57000;BME280;42891;50.006;21.964;2023-04-21T11:48:42;50780.28;;;-146.02;27.79
57000;BME280;42891;50.006;21.964;2023-04-21T11:52:42;50754.22;;;-146.02;28.10
57000;BME280;42891;50.006;21.964;2023-04-21T11:56:47;50778.28;;;-146.02;28.34
57000;BME280;42891;50.006;21.964;2023-04-21T12:00:49;50734.19;;;-146.02;28.71
57000;BME280;42891;50.006;21.964;2023-04-21T12:09:01;50752.22;;;-146.02;28.10
57000;BME280;42891;50.006;21.964;2023-04-21T12:13:01;50742.22;;;-146.02;27.92
57000;BME280;42891;50.006;21.964;2023-04-21T12:17:05;50764.25;;;-146.02;27.53
57000;BME280;42891;50.006;21.964;2023-04-21T12:21:05;50672.09;;;-146.02;26.69
57000;BME280;42891;50.006;21.964;2023-04-21T12:25:06;50740.22;;;-146.02;27.09
57000;BME280;42891;50.006;21.964;2023-04-21T12:29:08;50720.16;;;-146.02;28.01
57000;BME280;42891;50.006;21.964;2023-04-21T12:33:09;50730.19;;;-146.02;27.44
57000;BME280;42891;50.006;21.964;2023-04-21T12:37:10;50708.16;;;-146.02;27.71
57000;BME280;42891;50.006;21.964;2023-04-21T12:41:10;50724.19;;;-146.02;27.41
57000;BME280;42891;50.006;21.964;2023-04-21T12:45:11;50718.16;;;-146.02;27.77
57000;BME280;42891;50.006;21.964;2023-04-21T12:49:12;50716.16;;;-146.02;27.14
57000;BME280;42891;50.006;21.964;2023-04-21T12:53:13;50706.16;;;-146.02;27.35
57000;BME280;42891;50.006;21.964;2023-04-21T12:57:14;50694.13;;;-146.02;26.36
57000;BME280;42891;50.006;21.964;2023-04-21T13:01:15;50694.13;;;-146.02;27.04
57000;BME280;42891;50.006;21.964;2023-04-21T13:05:15;50676.09;;;-146.02;27.18
57000;BME280;42891;50.006;21.964;2023-04-21T13:09:16;50676.09;;;-146.02;27.20
57000;BME280;42891;50.006;21.964;2023-04-21T13:13:16;50696.13;;;-146.02;27.23
57000;BME280;42891;50.006;21.964;2023-04-21T13:17:17;50688.13;;;-146.02;26.19
57000;BME280;42891;50.006;21.964;2023-04-21T13:21:17;50700.13;;;-146.02;26.45
57000;BME280;42891;50.006;21.964;2023-04-21T13:25:17;50658.06;;;-146.02;26.09
57000;BME280;42891;50.006;21.964;2023-04-21T13:29:18;50694.13;;;-146.02;26.06
57000;BME280;42891;50.006;21.964;2023-04-21T13:33:19;50692.13;;;-146.02;26.72
57000;BME280;42891;50.006;21.964;2023-04-21T13:37:19;50684.09;;;-146.02;26.12
57000;BME280;42891;50.006;21.964;2023-04-21T13:41:20;50670.09;;;-146.02;25.97
57000;BME280;42891;50.006;21.964;2023-04-21T13:45:20;50646.03;;;-146.02;26.49
57000;BME280;42891;50.006;21.964;2023-04-21T13:49:21;50676.09;;;-146.02;26.82
57000;BME280;42891;50.006;21.964;2023-04-21T13:53:21;50654.06;;;-146.02;26.11
57000;BME280;42891;50.006;21.964;2023-04-21T13:57:23;50710.16;;;-146.02;25.64
57000;BME280;42891;50.006;21.964;2023-04-21T14:01:24;50652.03;;;-146.02;26.04
57000;BME280;42891;50.006;21.964;2023-04-21T14:05:24;50632.00;;;-146.02;26.30
57000;BME280;42891;50.006;21.964;2023-04-21T14:09:24;50642.03;;;-146.02;25.49
57000;BME280;42891;50.006;21.964;2023-04-21T14:13:25;50644.03;;;-146.02;25.94
57000;BME280;42891;50.006;21.964;2023-04-21T14:17:30;50644.03;;;-146.02;26.83
57000;BME280;42891;50.006;21.964;2023-04-21T14:21:31;50666.06;;;-146.02;25.02
57000;BME280;42891;50.006;21.964;2023-04-21T14:25:34;50642.03;;;-146.02;25.28
57000;BME280;42891;50.006;21.964;2023-04-21T14:29:34;50644.03;;;-146.02;26.63
57000;BME280;42891;50.006;21.964;2023-04-21T14:33:35;50624.00;;;-146.02;25.75
57000;BME280;42891;50.006;21.964;2023-04-21T14:37:35;50624.00;;;-146.02;26.38
57000;BME280;42891;50.006;21.964;2023-04-21T14:41:35;50620.00;;;-146.02;25.77
57000;BME280;42891;50.006;21.964;2023-04-21T14:45:36;50609.97;;;-146.02;26.33
57000;BME280;42891;50.006;21.964;2023-04-21T14:49:37;50640.03;;;-146.02;25.94
57000;BME280;42891;50.006;21.964;2023-04-21T14:53:37;50638.03;;;-146.02;25.37
57000;BME280;42891;50.006;21.964;2023-04-21T14:57:39;50607.97;;;-146.02;25.26
57000;BME280;42891;50.006;21.964;2023-04-21T15:01:40;50654.06;;;-146.02;26.00
57000;BME280;42891;50.006;21.964;2023-04-21T15:05:40;50640.03;;;-146.02;25.77
57000;BME280;42891;50.006;21.964;2023-04-21T15:09:40;50626.00;;;-146.02;25.89
57000;BME280;42891;50.006;21.964;2023-04-21T15:13:44;50624.00;;;-146.02;25.50
57000;BME280;42891;50.006;21.964;2023-04-21T15:17:45;50549.88;;;-146.02;24.65
57000;BME280;42891;50.006;21.964;2023-04-21T15:21:45;50595.94;;;-146.02;24.19
57000;BME280;42891;50.006;21.964;2023-04-21T15:25:46;50507.78;;;-146.02;23.75
57000;BME280;42891;50.006;21.964;2023-04-21T15:29:46;50509.78;;;-146.02;23.21
57000;BME280;42891;50.006;21.964;2023-04-21T15:33:49;50505.78;;;-146.02;24.14
57000;BME280;42891;50.006;21.964;2023-04-21T15:37:52;50549.88;;;-146.02;24.03
57000;BME280;42891;50.006;21.964;2023-04-21T15:41:54;50545.84;;;-146.02;24.10
57000;BME280;42891;50.006;21.964;2023-04-21T15:45:54;50551.88;;;-146.02;24.53
57000;BME280;42891;50.006;21.964;2023-04-21T15:49:55;50587.94;;;-146.02;24.56
57000;BME280;42891;50.006;21.964;2023-04-21T15:53:55;50573.91;;;-146.02;24.65
57000;BME280;42891;50.006;21.964;2023-04-21T15:57:56;50593.94;;;-146.02;25.30
57000;BME280;42891;50.006;21.964;2023-04-21T16:01:56;50654.06;;;-146.02;25.47
57000;BME280;42891;50.006;21.964;2023-04-21T16:05:56;50660.06;;;-146.02;25.34
57000;BME280;42891;50.006;21.964;2023-04-21T16:09:57;50658.06;;;-146.02;25.74
57000;BME280;42891;50.006;21.964;2023-04-21T16:13:57;50632.00;;;-146.02;25.92
57000;BME280;42891;50.006;21.964;2023-04-21T16:17:57;50658.06;;;-146.02;25.99
57000;BME280;42891;50.006;21.964;2023-04-21T16:21:59;50680.09;;;-146.02;26.24
57000;BME280;42891;50.006;21.964;2023-04-21T16:26:00;50656.06;;;-146.02;26.67
57000;BME280;42891;50.006;21.964;2023-04-21T16:30:01;50668.06;;;-146.02;26.62
57000;BME280;42891;50.006;21.964;2023-04-21T16:34:01;50646.03;;;-146.02;27.33
57000;BME280;42891;50.006;21.964;2023-04-21T16:38:02;50664.06;;;-146.02;27.47
57000;BME280;42891;50.006;21.964;2023-04-21T16:42:02;50708.16;;;-146.02;27.91
57000;BME280;42891;50.006;21.964;2023-04-21T16:46:02;50710.16;;;-146.02;27.88
57000;BME280;42891;50.006;21.964;2023-04-21T16:50:04;50668.06;;;-146.02;27.97
57000;BME280;42891;50.006;21.964;2023-04-21T16:54:04;50680.09;;;-146.02;28.42
57000;BME280;42891;50.006;21.964;2023-04-21T16:58:05;50696.13;;;-146.02;28.48
57000;BME280;42891;50.006;21.964;2023-04-21T17:02:05;50738.19;;;-146.02;28.86
57000;BME280;42891;50.006;21.964;2023-04-21T17:06:05;50732.19;;;-146.02;29.07
57000;BME280;42891;50.006;21.964;2023-04-21T17:10:09;50696.13;;;-146.02;29.10
57000;BME280;42891;50.006;21.964;2023-04-21T17:14:10;50720.16;;;-146.02;29.91
57000;BME280;42891;50.006;21.964;2023-04-21T17:18:11;50708.16;;;-146.02;29.84
57000;BME280;42891;50.006;21.964;2023-04-21T17:22:12;50688.13;;;-146.02;29.92
57000;BME280;42891;50.006;21.964;2023-04-21T17:26:13;50744.22;;;-146.02;30.21
57000;BME280;42891;50.006;21.964;2023-04-21T17:30:14;50718.16;;;-146.02;30.13
57000;BME280;42891;50.006;21.964;2023-04-21T17:34:14;50724.19;;;-146.02;30.21
57000;BME280;42891;50.006;21.964;2023-04-21T17:38:15;50724.19;;;-146.02;31.10
57000;BME280;42891;50.006;21.964;2023-04-21T17:42:15;50694.13;;;-146.02;30.72
57000;BME280;42891;50.006;21.964;2023-04-21T17:46:15;50758.25;;;-146.02;30.65
57000;BME280;42891;50.006;21.964;2023-04-21T17:50:16;50694.13;;;-146.02;31.17
57000;BME280;42891;50.006;21.964;2023-04-21T17:54:16;50710.16;;;-146.02;31.48
57000;BME280;42891;50.006;21.964;2023-04-21T17:58:16;50710.16;;;-146.02;31.59
57000;BME280;42891;50.006;21.964;2023-04-21T18:02:17;50698.13;;;-146.02;31.69
57000;BME280;42891;50.006;21.964;2023-04-21T18:06:17;50740.22;;;-146.02;31.43
57000;BME280;42891;50.006;21.964;2023-04-21T18:10:18;50722.19;;;-146.02;32.14
57000;BME280;42891;50.006;21.964;2023-04-21T18:14:19;50734.19;;;-146.02;32.11
57000;BME280;42891;50.006;21.964;2023-04-21T18:18:19;50708.16;;;-146.02;31.71
57000;BME280;42891;50.006;21.964;2023-04-21T18:22:20;50740.22;;;-146.02;31.59
57000;BME280;42891;50.006;21.964;2023-04-21T18:26:20;50736.19;;;-146.02;32.52
57000;BME280;42891;50.006;21.964;2023-04-21T18:30:20;50718.16;;;-146.02;32.37
57000;BME280;42891;50.006;21.964;2023-04-21T18:34:21;50732.19;;;-146.02;33.04
57000;BME280;42891;50.006;21.964;2023-04-21T18:38:21;50742.22;;;-146.02;32.96
57000;BME280;42891;50.006;21.964;2023-04-21T18:42:22;50724.19;;;-146.02;33.51
57000;BME280;42891;50.006;21.964;2023-04-21T18:46:22;50720.16;;;-146.02;32.79
57000;BME280;42891;50.006;21.964;2023-04-21T18:50:24;50702.13;;;-146.02;33.56
57000;BME280;42891;50.006;21.964;2023-04-21T18:54:26;50756.22;;;-146.02;33.15
57000;BME280;42891;50.006;21.964;2023-04-21T18:58:26;50722.19;;;-146.02;33.27
57000;BME280;42891;50.006;21.964;2023-04-21T19:02:27;50718.16;;;-146.02;33.49
57000;BME280;42891;50.006;21.964;2023-04-21T19:06:29;50744.22;;;-146.02;34.16
57000;BME280;42891;50.006;21.964;2023-04-21T19:10:31;50734.19;;;-146.02;33.82
57000;BME280;42891;50.006;21.964;2023-04-21T19:14:33;50748.22;;;-146.02;34.05
57000;BME280;42891;50.006;21.964;2023-04-21T19:18:33;50756.22;;;-146.02;33.52
57000;BME280;42891;50.006;21.964;2023-04-21T19:22:34;50766.25;;;-146.02;33.86
57000;BME280;42891;50.006;21.964;2023-04-21T19:26:36;50764.25;;;-146.02;34.40
57000;BME280;42891;50.006;21.964;2023-04-21T19:30:37;50726.19;;;-146.02;34.42
57000;BME280;42891;50.006;21.964;2023-04-21T19:34:37;50748.22;;;-146.02;34.23
57000;BME280;42891;50.006;21.964;2023-04-21T19:38:37;50740.22;;;-146.02;34.78
57000;BME280;42891;50.006;21.964;2023-04-21T19:42:38;50744.22;;;-146.02;34.74
57000;BME280;42891;50.006;21.964;2023-04-21T19:46:38;50692.13;;;-146.02;35.72
57000;BME280;42891;50.006;21.964;2023-04-21T19:50:41;50770.25;;;-146.02;36.93
57000;BME280;42891;50.006;21.964;2023-04-21T19:54:41;50750.22;;;-146.02;37.55
57000;BME280;42891;50.006;21.964;2023-04-21T19:58:42;50744.22;;;-146.02;36.86
57000;BME280;42891;50.006;21.964;2023-04-21T20:02:42;50744.22;;;-146.02;37.66
57000;BME280;42891;50.006;21.964;2023-04-21T20:06:43;50760.25;;;-146.02;38.09
57000;BME280;42891;50.006;21.964;2023-04-21T20:10:43;50816.34;;;-146.02;38.32
57000;BME280;42891;50.006;21.964;2023-04-21T20:14:43;50780.28;;;-146.02;39.68
57000;BME280;42891;50.006;21.964;2023-04-21T20:18:44;50794.31;;;-146.02;39.98
57000;BME280;42891;50.006;21.964;2023-04-21T20:22:44;50758.25;;;-146.02;41.02
57000;BME280;42891;50.006;21.964;2023-04-21T20:26:45;50768.25;;;-146.02;41.26
57000;BME280;42891;50.006;21.964;2023-04-21T20:30:45;50772.25;;;-146.02;40.33
57000;BME280;42891;50.006;21.964;2023-04-21T20:34:45;50758.25;;;-146.02;41.65